sensor_id;sensor_type;location;lat;lon;timestamp;P1;durP1;ratioP1;P2;durP2;ratioP2
20972;SDS011;10645;52.370;13.314;2023-11-21T00:00:38;1.90;;;0.40;;
20972;SDS011;10645;52.370;13.314;2023-11-21T00:03:04;0.38;;;0.38;;
20972;SDS011;10645;52.370;13.314;2023-11-21T00:05:30;1.42;;;1.30;;
20972;SDS011;10645;52.370;13.314;2023-11-21T00:07:56;1.60;;;0.93;;
20972;SDS011;10645;52.370;13.314;2023-11-21T00:10:22;4.65;;;1.10;;
20972;SDS011;10645;52.370;13.314;2023-11-21T00:12:48;0.85;;;0.82;;
20972;SDS011;10645;52.370;13.314;2023-11-21T00:15:14;0.85;;;0.77;;
20972;SDS011;10645;52.370;13.314;2023-11-21T00:17:40;1.17;;;0.75;;
20972;SDS011;10645;52.370;13.314;2023-11-21T00:20:08;0.50;;;0.50;;
20972;SDS011;10645;52.370;13.314;2023-11-21T00:22:38;0.20;;;0.20;;
20972;SDS011;10645;52.370;13.314;2023-11-21T00:25:04;0.95;;;0.45;;
20972;SDS011;10645;52.370;13.314;2023-11-21T00:27:30;0.20;;;0.20;;
20972;SDS011;10645;52.370;13.314;2023-11-21T00:29:57;0.65;;;0.30;;
20972;SDS011;10645;52.370;13.314;2023-11-21T00:32:23;1.02;;;0.47;;
20972;SDS011;10645;52.370;13.314;2023-11-21T00:34:49;0.22;;;0.22;;
20972;SDS011;10645;52.370;13.314;2023-11-21T00:37:15;1.23;;;0.25;;
20972;SDS011;10645;52.370;13.314;2023-11-21T00:39:41;0.32;;;0.32;;
20972;SDS011;10645;52.370;13.314;2023-11-21T00:42:08;0.40;;;0.40;;
20972;SDS011;10645;52.370;13.314;2023-11-21T00:44:34;1.48;;;1.25;;
20972;SDS011;10645;52.370;13.314;2023-11-21T00:47:03;1.60;;;1.50;;
20972;SDS011;10645;52.370;13.314;2023-11-21T00:49:29;2.50;;;2.38;;
20972;SDS011;10645;52.370;13.314;2023-11-21T00:51:55;2.10;;;1.85;;
20972;SDS011;10645;52.370;13.314;2023-11-21T00:54:23;1.60;;;1.50;;
20972;SDS011;10645;52.370;13.314;2023-11-21T00:56:49;2.20;;;2.03;;
20972;SDS011;10645;52.370;13.314;2023-11-21T00:59:15;1.00;;;0.93;;
20972;SDS011;10645;52.370;13.314;2023-11-21T01:01:41;2.03;;;1.92;;
20972;SDS011;10645;52.370;13.314;2023-11-21T01:04:07;2.65;;;2.08;;
20972;SDS011;10645;52.370;13.314;2023-11-21T01:06:33;6.75;;;3.28;;
20972;SDS011;10645;52.370;13.314;2023-11-21T01:08:59;3.88;;;2.30;;
20972;SDS011;10645;52.370;13.314;2023-11-21T01:11:25;5.75;;;2.33;;
20972;SDS011;10645;52.370;13.314;2023-11-21T01:13:52;2.35;;;2.20;;
20972;SDS011;10645;52.370;13.314;2023-11-21T01:16:18;3.10;;;2.65;;
20972;SDS011;10645;52.370;13.314;2023-11-21T01:18:45;2.92;;;2.63;;
20972;SDS011;10645;52.370;13.314;2023-11-21T01:21:12;5.72;;;5.20;;
20972;SDS011;10645;52.370;13.314;2023-11-21T01:23:38;3.67;;;2.72;;
20972;SDS011;10645;52.370;13.314;2023-11-21T01:26:04;8.27;;;4.78;;
20972;SDS011;10645;52.370;13.314;2023-11-21T01:28:30;6.80;;;4.27;;
20972;SDS011;10645;52.370;13.314;2023-11-21T01:30:57;3.90;;;3.55;;
20972;SDS011;10645;52.370;13.314;2023-11-21T01:33:23;6.32;;;4.55;;
20972;SDS011;10645;52.370;13.314;2023-11-21T01:35:51;5.18;;;3.83;;
20972;SDS011;10645;52.370;13.314;2023-11-21T01:38:20;5.90;;;3.53;;
20972;SDS011;10645;52.370;13.314;2023-11-21T01:40:47;9.25;;;5.05;;
20972;SDS011;10645;52.370;13.314;2023-11-21T01:43:13;6.32;;;4.68;;
20972;SDS011;10645;52.370;13.314;2023-11-21T01:45:39;7.50;;;5.43;;
20972;SDS011;10645;52.370;13.314;2023-11-21T01:48:05;6.67;;;4.37;;
20972;SDS011;10645;52.370;13.314;2023-11-21T01:50:32;6.18;;;4.70;;
20972;SDS011;10645;52.370;13.314;2023-11-21T01:52:59;7.50;;;6.10;;
20972;SDS011;10645;52.370;13.314;2023-11-21T01:55:25;4.70;;;4.27;;
20972;SDS011;10645;52.370;13.314;2023-11-21T01:57:53;6.70;;;6.10;;
20972;SDS011;10645;52.370;13.314;2023-11-21T02:00:20;7.37;;;5.30;;
20972;SDS011;10645;52.370;13.314;2023-11-21T02:02:47;6.73;;;6.07;;
20972;SDS011;10645;52.370;13.314;2023-11-21T02:05:14;9.87;;;7.63;;
20972;SDS011;10645;52.370;13.314;2023-11-21T02:07:45;6.30;;;4.83;;
20972;SDS011;10645;52.370;13.314;2023-11-21T02:10:15;9.83;;;5.87;;
20972;SDS011;10645;52.370;13.314;2023-11-21T02:12:42;10.40;;;8.13;;
20972;SDS011;10645;52.370;13.314;2023-11-21T02:15:09;9.37;;;7.20;;
20972;SDS011;10645;52.370;13.314;2023-11-21T02:17:43;10.03;;;6.83;;
20972;SDS011;10645;52.370;13.314;2023-11-21T02:20:10;12.03;;;5.80;;
20972;SDS011;10645;52.370;13.314;2023-11-21T02:22:42;7.77;;;6.83;;
20972;SDS011;10645;52.370;13.314;2023-11-21T02:25:08;20.10;;;7.00;;
20972;SDS011;10645;52.370;13.314;2023-11-21T02:27:34;8.53;;;3.97;;
20972;SDS011;10645;52.370;13.314;2023-11-21T02:30:01;16.97;;;9.83;;
20972;SDS011;10645;52.370;13.314;2023-11-21T02:32:27;6.93;;;5.57;;
20972;SDS011;10645;52.370;13.314;2023-11-21T02:34:53;6.53;;;5.20;;
20972;SDS011;10645;52.370;13.314;2023-11-21T02:37:26;9.17;;;6.00;;
20972;SDS011;10645;52.370;13.314;2023-11-21T02:39:52;6.87;;;6.43;;
20972;SDS011;10645;52.370;13.314;2023-11-21T02:42:18;9.47;;;7.80;;
20972;SDS011;10645;52.370;13.314;2023-11-21T02:44:44;5.73;;;4.30;;
20972;SDS011;10645;52.370;13.314;2023-11-21T02:47:10;8.03;;;5.20;;
20972;SDS011;10645;52.370;13.314;2023-11-21T02:49:37;8.47;;;4.50;;
20972;SDS011;10645;52.370;13.314;2023-11-21T02:52:03;9.87;;;4.47;;
20972;SDS011;10645;52.370;13.314;2023-11-21T02:54:29;4.57;;;4.17;;
20972;SDS011;10645;52.370;13.314;2023-11-21T02:56:55;5.67;;;4.60;;
20972;SDS011;10645;52.370;13.314;2023-11-21T02:59:21;8.63;;;5.63;;
20972;SDS011;10645;52.370;13.314;2023-11-21T03:01:47;3.03;;;2.77;;
20972;SDS011;10645;52.370;13.314;2023-11-21T03:04:15;9.43;;;5.53;;
20972;SDS011;10645;52.370;13.314;2023-11-21T03:06:43;6.50;;;3.37;;
20972;SDS011;10645;52.370;13.314;2023-11-21T03:09:10;7.53;;;4.07;;
20972;SDS011;10645;52.370;13.314;2023-11-21T03:11:39;3.40;;;2.93;;
20972;SDS011;10645;52.370;13.314;2023-11-21T03:14:05;5.23;;;4.27;;
20972;SDS011;10645;52.370;13.314;2023-11-21T03:16:32;4.73;;;4.23;;
20972;SDS011;10645;52.370;13.314;2023-11-21T03:18:58;4.00;;;3.60;;
20972;SDS011;10645;52.370;13.314;2023-11-21T03:21:24;2.97;;;2.73;;
20972;SDS011;10645;52.370;13.314;2023-11-21T03:23:51;5.87;;;4.47;;
20972;SDS011;10645;52.370;13.314;2023-11-21T03:26:18;6.47;;;5.33;;
20972;SDS011;10645;52.370;13.314;2023-11-21T03:28:44;13.60;;;5.20;;
20972;SDS011;10645;52.370;13.314;2023-11-21T03:31:11;4.03;;;3.37;;
20972;SDS011;10645;52.370;13.314;2023-11-21T03:33:37;7.70;;;3.70;;
20972;SDS011;10645;52.370;13.314;2023-11-21T03:36:04;7.93;;;4.50;;
20972;SDS011;10645;52.370;13.314;2023-11-21T03:38:30;10.57;;;4.13;;
20972;SDS011;10645;52.370;13.314;2023-11-21T03:40:56;6.10;;;3.47;;
20972;SDS011;10645;52.370;13.314;2023-11-21T03:43:22;11.10;;;5.13;;
20972;SDS011;10645;52.370;13.314;2023-11-21T03:45:48;4.17;;;3.90;;
20972;SDS011;10645;52.370;13.314;2023-11-21T03:48:16;3.33;;;3.03;;
20972;SDS011;10645;52.370;13.314;2023-11-21T03:50:42;6.10;;;4.77;;
20972;SDS011;10645;52.370;13.314;2023-11-21T03:53:08;6.40;;;3.77;;
20972;SDS011;10645;52.370;13.314;2023-11-21T03:55:34;3.97;;;3.57;;
20972;SDS011;10645;52.370;13.314;2023-11-21T03:58:00;8.67;;;3.13;;
20972;SDS011;10645;52.370;13.314;2023-11-21T04:00:27;5.03;;;3.03;;
20972;SDS011;10645;52.370;13.314;2023-11-21T04:02:53;5.50;;;3.27;;
20972;SDS011;10645;52.370;13.314;2023-11-21T04:05:20;4.10;;;3.77;;
20972;SDS011;10645;52.370;13.314;2023-11-21T04:07:48;4.67;;;4.27;;
20972;SDS011;10645;52.370;13.314;2023-11-21T04:10:15;5.07;;;3.13;;
20972;SDS011;10645;52.370;13.314;2023-11-21T04:12:42;2.30;;;2.10;;
20972;SDS011;10645;52.370;13.314;2023-11-21T04:15:08;5.10;;;3.30;;
20972;SDS011;10645;52.370;13.314;2023-11-21T04:17:35;4.07;;;3.00;;
20972;SDS011;10645;52.370;13.314;2023-11-21T04:20:03;2.77;;;2.57;;
20972;SDS011;10645;52.370;13.314;2023-11-21T04:22:38;1.40;;;0.93;;
20972;SDS011;10645;52.370;13.314;2023-11-21T04:25:08;2.77;;;2.53;;
20972;SDS011;10645;52.370;13.314;2023-11-21T04:27:35;5.40;;;1.97;;
20972;SDS011;10645;52.370;13.314;2023-11-21T04:30:02;4.37;;;3.27;;
20972;SDS011;10645;52.370;13.314;2023-11-21T04:32:28;3.43;;;2.87;;
20972;SDS011;10645;52.370;13.314;2023-11-21T04:34:54;2.97;;;2.67;;
20972;SDS011;10645;52.370;13.314;2023-11-21T04:37:20;3.10;;;2.73;;
20972;SDS011;10645;52.370;13.314;2023-11-21T04:39:46;3.53;;;2.50;;
20972;SDS011;10645;52.370;13.314;2023-11-21T04:43:14;6.00;;;4.60;;
20972;SDS011;10645;52.370;13.314;2023-11-21T04:45:40;8.97;;;7.00;;
20972;SDS011;10645;52.370;13.314;2023-11-21T04:48:07;5.93;;;5.37;;
20972;SDS011;10645;52.370;13.314;2023-11-21T04:50:34;22.33;;;15.23;;
20972;SDS011;10645;52.370;13.314;2023-11-21T04:53:00;15.20;;;13.20;;
20972;SDS011;10645;52.370;13.314;2023-11-21T04:55:26;3.77;;;3.03;;
20972;SDS011;10645;52.370;13.314;2023-11-21T04:57:53;6.97;;;4.20;;
20972;SDS011;10645;52.370;13.314;2023-11-21T05:00:20;4.20;;;3.80;;
20972;SDS011;10645;52.370;13.314;2023-11-21T05:02:47;4.50;;;2.27;;
20972;SDS011;10645;52.370;13.314;2023-11-21T05:05:13;2.23;;;2.03;;
20972;SDS011;10645;52.370;13.314;2023-11-21T05:07:40;3.80;;;2.83;;
20972;SDS011;10645;52.370;13.314;2023-11-21T05:10:07;3.70;;;3.40;;
20972;SDS011;10645;52.370;13.314;2023-11-21T05:12:36;2.90;;;2.70;;
20972;SDS011;10645;52.370;13.314;2023-11-21T05:15:05;5.70;;;2.47;;
20972;SDS011;10645;52.370;13.314;2023-11-21T05:17:38;3.10;;;2.83;;
20972;SDS011;10645;52.370;13.314;2023-11-21T05:20:08;3.57;;;3.00;;
20972;SDS011;10645;52.370;13.314;2023-11-21T05:22:35;2.37;;;2.17;;
20972;SDS011;10645;52.370;13.314;2023-11-21T05:25:02;4.20;;;3.70;;
20972;SDS011;10645;52.370;13.314;2023-11-21T05:27:29;6.23;;;4.03;;
20972;SDS011;10645;52.370;13.314;2023-11-21T05:29:59;4.73;;;3.57;;
20972;SDS011;10645;52.370;13.314;2023-11-21T05:32:27;4.73;;;3.57;;
20972;SDS011;10645;52.370;13.314;2023-11-21T05:34:53;2.83;;;2.47;;
20972;SDS011;10645;52.370;13.314;2023-11-21T05:37:19;4.03;;;2.70;;
20972;SDS011;10645;52.370;13.314;2023-11-21T05:39:45;2.30;;;2.10;;
20972;SDS011;10645;52.370;13.314;2023-11-21T05:42:12;4.10;;;3.63;;
20972;SDS011;10645;52.370;13.314;2023-11-21T05:44:40;6.60;;;5.20;;
20972;SDS011;10645;52.370;13.314;2023-11-21T05:47:09;3.13;;;2.60;;
20972;SDS011;10645;52.370;13.314;2023-11-21T05:49:35;4.20;;;3.00;;
20972;SDS011;10645;52.370;13.314;2023-11-21T05:52:02;5.07;;;2.17;;
20972;SDS011;10645;52.370;13.314;2023-11-21T05:54:28;4.00;;;2.87;;
20972;SDS011;10645;52.370;13.314;2023-11-21T05:56:54;3.20;;;2.93;;
20972;SDS011;10645;52.370;13.314;2023-11-21T05:59:20;2.93;;;2.47;;
20972;SDS011;10645;52.370;13.314;2023-11-21T06:01:46;3.77;;;3.43;;
20972;SDS011;10645;52.370;13.314;2023-11-21T06:04:13;1.40;;;1.40;;
20972;SDS011;10645;52.370;13.314;2023-11-21T06:06:39;2.40;;;2.20;;
20972;SDS011;10645;52.370;13.314;2023-11-21T06:09:05;2.03;;;1.90;;
20972;SDS011;10645;52.370;13.314;2023-11-21T06:11:35;2.87;;;2.07;;
20972;SDS011;10645;52.370;13.314;2023-11-21T06:14:01;1.40;;;1.30;;
20972;SDS011;10645;52.370;13.314;2023-11-21T06:16:27;2.33;;;1.93;;
20972;SDS011;10645;52.370;13.314;2023-11-21T06:18:54;2.10;;;1.50;;
20972;SDS011;10645;52.370;13.314;2023-11-21T06:21:20;2.40;;;1.97;;
20972;SDS011;10645;52.370;13.314;2023-11-21T06:23:46;3.23;;;2.03;;
20972;SDS011;10645;52.370;13.314;2023-11-21T06:26:13;5.03;;;2.67;;
20972;SDS011;10645;52.370;13.314;2023-11-21T06:28:39;2.37;;;1.83;;
20972;SDS011;10645;52.370;13.314;2023-11-21T06:31:06;2.63;;;2.43;;
20972;SDS011;10645;52.370;13.314;2023-11-21T06:33:32;3.13;;;2.23;;
20972;SDS011;10645;52.370;13.314;2023-11-21T06:35:58;2.20;;;2.00;;
20972;SDS011;10645;52.370;13.314;2023-11-21T06:38:28;3.70;;;1.47;;
20972;SDS011;10645;52.370;13.314;2023-11-21T06:40:55;3.07;;;2.17;;
20972;SDS011;10645;52.370;13.314;2023-11-21T06:43:23;4.53;;;1.53;;
20972;SDS011;10645;52.370;13.314;2023-11-21T06:45:50;3.03;;;2.70;;
20972;SDS011;10645;52.370;13.314;2023-11-21T06:48:16;3.37;;;3.00;;
20972;SDS011;10645;52.370;13.314;2023-11-21T06:50:42;1.57;;;0.80;;
20972;SDS011;10645;52.370;13.314;2023-11-21T06:53:08;3.20;;;2.20;;
20972;SDS011;10645;52.370;13.314;2023-11-21T06:55:35;4.87;;;2.53;;
20972;SDS011;10645;52.370;13.314;2023-11-21T06:58:01;1.60;;;1.50;;
20972;SDS011;10645;52.370;13.314;2023-11-21T07:00:27;1.37;;;1.27;;
20972;SDS011;10645;52.370;13.314;2023-11-21T07:02:54;1.30;;;1.20;;
20972;SDS011;10645;52.370;13.314;2023-11-21T07:05:23;0.90;;;0.90;;
20972;SDS011;10645;52.370;13.314;2023-11-21T07:07:49;2.40;;;1.23;;
20972;SDS011;10645;52.370;13.314;2023-11-21T07:10:15;1.90;;;1.40;;
20972;SDS011;10645;52.370;13.314;2023-11-21T07:12:42;1.77;;;1.43;;
20972;SDS011;10645;52.370;13.314;2023-11-21T07:15:08;1.17;;;0.97;;
20972;SDS011;10645;52.370;13.314;2023-11-21T07:17:35;2.13;;;2.03;;
20972;SDS011;10645;52.370;13.314;2023-11-21T07:20:02;1.70;;;1.60;;
20972;SDS011;10645;52.370;13.314;2023-11-21T07:22:28;4.63;;;1.53;;
20972;SDS011;10645;52.370;13.314;2023-11-21T07:24:55;2.03;;;1.83;;
20972;SDS011;10645;52.370;13.314;2023-11-21T07:27:24;1.80;;;1.60;;
20972;SDS011;10645;52.370;13.314;2023-11-21T07:29:50;2.23;;;2.03;;
20972;SDS011;10645;52.370;13.314;2023-11-21T07:32:16;1.47;;;1.00;;
20972;SDS011;10645;52.370;13.314;2023-11-21T07:34:42;3.10;;;2.37;;
20972;SDS011;10645;52.370;13.314;2023-11-21T07:37:08;2.10;;;1.90;;
20972;SDS011;10645;52.370;13.314;2023-11-21T07:39:35;1.20;;;1.13;;
20972;SDS011;10645;52.370;13.314;2023-11-21T07:42:02;1.63;;;1.53;;
20972;SDS011;10645;52.370;13.314;2023-11-21T07:44:28;1.50;;;1.40;;
20972;SDS011;10645;52.370;13.314;2023-11-21T07:46:54;1.70;;;1.60;;
20972;SDS011;10645;52.370;13.314;2023-11-21T07:49:24;1.27;;;1.17;;
20972;SDS011;10645;52.370;13.314;2023-11-21T07:51:50;0.93;;;0.93;;
20972;SDS011;10645;52.370;13.314;2023-11-21T07:54:16;2.13;;;1.93;;
20972;SDS011;10645;52.370;13.314;2023-11-21T07:56:43;1.37;;;1.27;;
20972;SDS011;10645;52.370;13.314;2023-11-21T07:59:09;1.83;;;0.97;;
20972;SDS011;10645;52.370;13.314;2023-11-21T08:01:35;2.57;;;2.37;;
20972;SDS011;10645;52.370;13.314;2023-11-21T08:04:01;2.00;;;1.90;;
20972;SDS011;10645;52.370;13.314;2023-11-21T08:06:29;4.00;;;1.60;;
20972;SDS011;10645;52.370;13.314;2023-11-21T08:08:56;2.07;;;1.87;;
20972;SDS011;10645;52.370;13.314;2023-11-21T08:11:22;1.00;;;0.97;;
20972;SDS011;10645;52.370;13.314;2023-11-21T08:13:48;2.43;;;2.33;;
20972;SDS011;10645;52.370;13.314;2023-11-21T08:16:14;2.23;;;2.13;;
20972;SDS011;10645;52.370;13.314;2023-11-21T08:18:42;3.80;;;3.13;;
20972;SDS011;10645;52.370;13.314;2023-11-21T08:21:08;1.40;;;1.30;;
20972;SDS011;10645;52.370;13.314;2023-11-21T08:23:34;1.77;;;1.10;;
20972;SDS011;10645;52.370;13.314;2023-11-21T08:26:00;2.20;;;2.00;;
20972;SDS011;10645;52.370;13.314;2023-11-21T08:28:28;0.67;;;0.67;;
20972;SDS011;10645;52.370;13.314;2023-11-21T08:30:54;4.10;;;1.87;;
20972;SDS011;10645;52.370;13.314;2023-11-21T08:33:21;2.10;;;1.87;;
20972;SDS011;10645;52.370;13.314;2023-11-21T08:35:47;2.57;;;1.57;;
20972;SDS011;10645;52.370;13.314;2023-11-21T08:38:13;0.73;;;0.73;;
20972;SDS011;10645;52.370;13.314;2023-11-21T08:40:39;1.70;;;1.47;;
20972;SDS011;10645;52.370;13.314;2023-11-21T08:43:05;0.67;;;0.67;;
20972;SDS011;10645;52.370;13.314;2023-11-21T08:45:32;2.43;;;1.47;;
20972;SDS011;10645;52.370;13.314;2023-11-21T08:48:02;1.00;;;1.00;;
20972;SDS011;10645;52.370;13.314;2023-11-21T08:50:29;1.83;;;1.73;;
20972;SDS011;10645;52.370;13.314;2023-11-21T08:52:55;2.63;;;2.10;;
20972;SDS011;10645;52.370;13.314;2023-11-21T08:55:21;1.60;;;1.50;;
20972;SDS011;10645;52.370;13.314;2023-11-21T08:57:47;3.47;;;1.90;;
20972;SDS011;10645;52.370;13.314;2023-11-21T09:00:14;4.83;;;2.17;;
20972;SDS011;10645;52.370;13.314;2023-11-21T09:02:43;1.47;;;1.03;;
20972;SDS011;10645;52.370;13.314;2023-11-21T09:05:10;1.37;;;1.27;;
20972;SDS011;10645;52.370;13.314;2023-11-21T09:07:37;1.07;;;1.00;;
20972;SDS011;10645;52.370;13.314;2023-11-21T09:10:04;0.93;;;0.83;;
20972;SDS011;10645;52.370;13.314;2023-11-21T09:12:33;0.43;;;0.43;;
20972;SDS011;10645;52.370;13.314;2023-11-21T09:15:04;2.80;;;2.17;;
20972;SDS011;10645;52.370;13.314;2023-11-21T09:17:31;2.73;;;2.23;;
20972;SDS011;10645;52.370;13.314;2023-11-21T09:19:57;2.20;;;2.03;;
20972;SDS011;10645;52.370;13.314;2023-11-21T09:22:23;5.27;;;2.87;;
20972;SDS011;10645;52.370;13.314;2023-11-21T09:24:50;1.53;;;0.93;;
20972;SDS011;10645;52.370;13.314;2023-11-21T09:27:17;2.93;;;2.63;;
20972;SDS011;10645;52.370;13.314;2023-11-21T09:29:44;1.40;;;1.30;;
20972;SDS011;10645;52.370;13.314;2023-11-21T09:32:11;3.07;;;2.47;;
20972;SDS011;10645;52.370;13.314;2023-11-21T09:34:39;5.00;;;1.63;;
20972;SDS011;10645;52.370;13.314;2023-11-21T09:37:07;2.93;;;2.50;;
20972;SDS011;10645;52.370;13.314;2023-11-21T09:39:33;1.90;;;1.80;;
20972;SDS011;10645;52.370;13.314;2023-11-21T09:47:21;2.57;;;2.37;;
20972;SDS011;10645;52.370;13.314;2023-11-21T09:49:48;2.67;;;1.90;;
20972;SDS011;10645;52.370;13.314;2023-11-21T09:52:20;1.63;;;1.20;;
20972;SDS011;10645;52.370;13.314;2023-11-21T09:54:51;1.10;;;1.10;;
20972;SDS011;10645;52.370;13.314;2023-11-21T09:57:23;6.20;;;3.07;;
20972;SDS011;10645;52.370;13.314;2023-11-21T09:59:51;2.87;;;2.23;;
20972;SDS011;10645;52.370;13.314;2023-11-21T10:02:22;1.70;;;1.60;;
20972;SDS011;10645;52.370;13.314;2023-11-21T10:04:52;0.97;;;0.97;;
20972;SDS011;10645;52.370;13.314;2023-11-21T10:07:18;5.23;;;2.47;;
20972;SDS011;10645;52.370;13.314;2023-11-21T10:09:46;2.47;;;2.27;;
20972;SDS011;10645;52.370;13.314;2023-11-21T10:12:15;2.00;;;0.97;;
20972;SDS011;10645;52.370;13.314;2023-11-21T10:14:42;1.43;;;1.33;;
20972;SDS011;10645;52.370;13.314;2023-11-21T10:17:10;2.00;;;1.57;;
20972;SDS011;10645;52.370;13.314;2023-11-21T10:19:38;3.03;;;1.40;;
20972;SDS011;10645;52.370;13.314;2023-11-21T10:22:05;2.73;;;2.13;;
20972;SDS011;10645;52.370;13.314;2023-11-21T10:24:32;3.60;;;1.80;;
20972;SDS011;10645;52.370;13.314;2023-11-21T10:26:58;1.67;;;1.57;;
20972;SDS011;10645;52.370;13.314;2023-11-21T10:29:30;2.63;;;2.43;;
20972;SDS011;10645;52.370;13.314;2023-11-21T10:32:04;3.57;;;1.90;;
20972;SDS011;10645;52.370;13.314;2023-11-21T10:34:31;3.43;;;2.73;;
20972;SDS011;10645;52.370;13.314;2023-11-21T10:36:57;4.13;;;1.03;;
20972;SDS011;10645;52.370;13.314;2023-11-21T10:39:24;2.13;;;1.53;;
20972;SDS011;10645;52.370;13.314;2023-11-21T10:41:54;0.53;;;0.53;;
20972;SDS011;10645;52.370;13.314;2023-11-21T10:44:21;1.47;;;1.17;;
20972;SDS011;10645;52.370;13.314;2023-11-21T10:46:50;1.80;;;1.70;;
20972;SDS011;10645;52.370;13.314;2023-11-21T10:49:17;1.60;;;0.87;;
20972;SDS011;10645;52.370;13.314;2023-11-21T10:51:44;0.80;;;0.70;;
20972;SDS011;10645;52.370;13.314;2023-11-21T10:54:10;2.47;;;1.30;;
20972;SDS011;10645;52.370;13.314;2023-11-21T10:56:39;0.70;;;0.70;;
20972;SDS011;10645;52.370;13.314;2023-11-21T10:59:09;1.30;;;1.13;;
20972;SDS011;10645;52.370;13.314;2023-11-21T11:01:42;1.63;;;1.30;;
20972;SDS011;10645;52.370;13.314;2023-11-21T11:04:09;1.17;;;0.73;;
20972;SDS011;10645;52.370;13.314;2023-11-21T11:06:54;0.57;;;0.47;;
20972;SDS011;10645;52.370;13.314;2023-11-21T11:09:22;2.87;;;1.13;;
20972;SDS011;10645;52.370;13.314;2023-11-21T11:11:49;1.60;;;1.37;;
20972;SDS011;10645;52.370;13.314;2023-11-21T11:14:16;1.87;;;0.70;;
20972;SDS011;10645;52.370;13.314;2023-11-21T11:16:45;1.63;;;0.77;;
20972;SDS011;10645;52.370;13.314;2023-11-21T11:19:11;1.60;;;1.50;;
20972;SDS011;10645;52.370;13.314;2023-11-21T11:27:34;2.53;;;0.87;;
20972;SDS011;10645;52.370;13.314;2023-11-21T11:33:14;0.83;;;0.83;;
20972;SDS011;10645;52.370;13.314;2023-11-21T11:38:21;2.70;;;1.80;;
20972;SDS011;10645;52.370;13.314;2023-11-21T11:40:52;1.13;;;1.03;;
20972;SDS011;10645;52.370;13.314;2023-11-21T11:43:25;0.80;;;0.80;;
20972;SDS011;10645;52.370;13.314;2023-11-21T11:45:55;1.23;;;1.07;;
20972;SDS011;10645;52.370;13.314;2023-11-21T11:48:22;0.73;;;0.73;;
20972;SDS011;10645;52.370;13.314;2023-11-21T11:51:01;0.70;;;0.60;;
20972;SDS011;10645;52.370;13.314;2023-11-21T11:53:40;1.53;;;1.43;;
20972;SDS011;10645;52.370;13.314;2023-11-21T11:56:21;1.37;;;0.80;;
20972;SDS011;10645;52.370;13.314;2023-11-21T11:58:55;2.10;;;2.00;;
20972;SDS011;10645;52.370;13.314;2023-11-21T12:01:24;1.57;;;1.00;;
20972;SDS011;10645;52.370;13.314;2023-11-21T12:07:00;1.23;;;1.13;;
20972;SDS011;10645;52.370;13.314;2023-11-21T12:09:30;0.90;;;0.70;;
20972;SDS011;10645;52.370;13.314;2023-11-21T12:11:57;0.53;;;0.53;;
20972;SDS011;10645;52.370;13.314;2023-11-21T12:14:24;0.90;;;0.63;;
20972;SDS011;10645;52.370;13.314;2023-11-21T12:16:51;0.50;;;0.50;;
20972;SDS011;10645;52.370;13.314;2023-11-21T12:19:17;0.40;;;0.40;;
20972;SDS011;10645;52.370;13.314;2023-11-21T12:21:44;2.17;;;2.07;;
20972;SDS011;10645;52.370;13.314;2023-11-21T12:24:10;2.03;;;1.40;;
20972;SDS011;10645;52.370;13.314;2023-11-21T12:26:39;1.40;;;0.77;;
20972;SDS011;10645;52.370;13.314;2023-11-21T12:29:06;2.00;;;1.10;;
20972;SDS011;10645;52.370;13.314;2023-11-21T12:31:33;1.83;;;1.73;;
20972;SDS011;10645;52.370;13.314;2023-11-21T12:34:02;1.33;;;0.27;;
20972;SDS011;10645;52.370;13.314;2023-11-21T12:36:30;0.67;;;0.40;;
20972;SDS011;10645;52.370;13.314;2023-11-21T12:38:56;1.33;;;1.13;;
20972;SDS011;10645;52.370;13.314;2023-11-21T12:41:22;1.00;;;0.90;;
20972;SDS011;10645;52.370;13.314;2023-11-21T12:43:48;1.53;;;1.37;;
20972;SDS011;10645;52.370;13.314;2023-11-21T12:46:15;0.47;;;0.47;;
20972;SDS011;10645;52.370;13.314;2023-11-21T12:48:42;0.60;;;0.43;;
20972;SDS011;10645;52.370;13.314;2023-11-21T12:51:11;0.93;;;0.93;;
20972;SDS011;10645;52.370;13.314;2023-11-21T12:53:39;0.80;;;0.80;;
20972;SDS011;10645;52.370;13.314;2023-11-21T12:56:15;1.07;;;0.93;;
20972;SDS011;10645;52.370;13.314;2023-11-21T12:58:44;1.00;;;0.93;;
20972;SDS011;10645;52.370;13.314;2023-11-21T13:01:12;0.87;;;0.87;;
20972;SDS011;10645;52.370;13.314;2023-11-21T13:03:43;0.50;;;0.50;;
20972;SDS011;10645;52.370;13.314;2023-11-21T13:06:14;1.60;;;1.50;;
20972;SDS011;10645;52.370;13.314;2023-11-21T13:08:41;1.73;;;1.20;;
20972;SDS011;10645;52.370;13.314;2023-11-21T13:11:11;0.37;;;0.37;;
20972;SDS011;10645;52.370;13.314;2023-11-21T13:13:39;0.70;;;0.70;;
20972;SDS011;10645;52.370;13.314;2023-11-21T13:16:07;0.73;;;0.73;;
20972;SDS011;10645;52.370;13.314;2023-11-21T13:18:33;1.10;;;0.40;;
20972;SDS011;10645;52.370;13.314;2023-11-21T13:21:01;0.80;;;0.80;;
20972;SDS011;10645;52.370;13.314;2023-11-21T13:23:35;1.50;;;0.83;;
20972;SDS011;10645;52.370;13.314;2023-11-21T13:26:02;0.50;;;0.50;;
20972;SDS011;10645;52.370;13.314;2023-11-21T13:28:29;1.43;;;1.03;;
20972;SDS011;10645;52.370;13.314;2023-11-21T13:30:59;0.50;;;0.50;;
20972;SDS011;10645;52.370;13.314;2023-11-21T13:33:29;0.87;;;0.87;;
20972;SDS011;10645;52.370;13.314;2023-11-21T13:35:55;0.50;;;0.50;;
20972;SDS011;10645;52.370;13.314;2023-11-21T13:38:22;1.60;;;1.20;;
20972;SDS011;10645;52.370;13.314;2023-11-21T13:40:49;1.00;;;0.90;;
20972;SDS011;10645;52.370;13.314;2023-11-21T13:43:19;1.50;;;1.33;;
20972;SDS011;10645;52.370;13.314;2023-11-21T13:45:48;0.77;;;0.63;;
20972;SDS011;10645;52.370;13.314;2023-11-21T13:48:24;2.10;;;1.73;;
20972;SDS011;10645;52.370;13.314;2023-11-21T13:50:53;2.47;;;1.70;;
20972;SDS011;10645;52.370;13.314;2023-11-21T13:53:38;1.33;;;1.23;;
20972;SDS011;10645;52.370;13.314;2023-11-21T13:56:07;0.90;;;0.87;;
20972;SDS011;10645;52.370;13.314;2023-11-21T13:58:34;1.20;;;1.20;;
20972;SDS011;10645;52.370;13.314;2023-11-21T14:01:23;3.47;;;2.53;;
20972;SDS011;10645;52.370;13.314;2023-11-21T14:04:08;1.67;;;1.57;;
20972;SDS011;10645;52.370;13.314;2023-11-21T14:06:46;1.33;;;1.23;;
20972;SDS011;10645;52.370;13.314;2023-11-21T14:09:15;1.27;;;0.93;;
20972;SDS011;10645;52.370;13.314;2023-11-21T14:11:55;1.03;;;1.03;;
20972;SDS011;10645;52.370;13.314;2023-11-21T14:14:26;2.13;;;2.00;;
20972;SDS011;10645;52.370;13.314;2023-11-21T14:16:55;1.43;;;1.30;;
20972;SDS011;10645;52.370;13.314;2023-11-21T14:19:24;2.70;;;2.50;;
20972;SDS011;10645;52.370;13.314;2023-11-21T14:21:57;5.50;;;2.87;;
20972;SDS011;10645;52.370;13.314;2023-11-21T14:24:23;2.13;;;2.03;;
20972;SDS011;10645;52.370;13.314;2023-11-21T14:26:51;2.13;;;1.93;;
20972;SDS011;10645;52.370;13.314;2023-11-21T14:29:17;2.63;;;2.43;;
20972;SDS011;10645;52.370;13.314;2023-11-21T14:31:48;2.40;;;1.87;;
20972;SDS011;10645;52.370;13.314;2023-11-21T14:34:22;3.03;;;2.43;;
20972;SDS011;10645;52.370;13.314;2023-11-21T14:36:49;1.40;;;1.30;;
20972;SDS011;10645;52.370;13.314;2023-11-21T14:39:16;2.37;;;2.17;;
20972;SDS011;10645;52.370;13.314;2023-11-21T14:41:49;3.53;;;1.97;;
20972;SDS011;10645;52.370;13.314;2023-11-21T14:44:16;1.50;;;1.33;;
20972;SDS011;10645;52.370;13.314;2023-11-21T14:46:42;3.83;;;1.30;;
20972;SDS011;10645;52.370;13.314;2023-11-21T14:49:13;1.37;;;1.23;;
20972;SDS011;10645;52.370;13.314;2023-11-21T14:51:47;1.13;;;1.10;;
20972;SDS011;10645;52.370;13.314;2023-11-21T14:54:29;2.93;;;2.47;;
20972;SDS011;10645;52.370;13.314;2023-11-21T14:57:12;2.30;;;2.20;;